createdAt,value
2019-04-28T07:39:45.707Z,2.57
2019-04-28T07:42:35.502Z,2.43
2019-04-28T07:45:06.322Z,2.10
2019-04-28T07:47:36.664Z,2.60
2019-04-28T07:50:26.527Z,2.17
2019-04-28T07:56:10.846Z,2.80
2019-04-28T07:59:01.427Z,2.30
2019-04-28T08:01:31.976Z,2.50
2019-04-28T08:04:02.325Z,2.63
2019-04-28T08:06:32.715Z,2.70
2019-04-28T08:09:03.220Z,2.07
2019-04-28T08:11:33.629Z,2.10
2019-04-28T08:14:23.366Z,2.03
2019-04-28T08:16:53.728Z,2.40
2019-04-28T08:19:24.111Z,2.07
2019-04-28T08:22:13.919Z,2.67
2019-04-28T08:25:03.701Z,2.30
2019-04-28T08:27:53.488Z,2.80
2019-04-28T08:30:43.217Z,1.83
2019-04-28T08:33:33.324Z,1.87
2019-04-28T08:36:10.814Z,2.27
2019-04-28T08:38:41.221Z,2.30
2019-04-28T08:41:11.584Z,1.97
2019-04-28T08:43:41.978Z,1.70
2019-04-28T08:46:12.398Z,2.00
2019-04-28T08:48:42.799Z,2.00
2019-04-28T08:51:13.164Z,1.70
2019-04-28T08:53:43.575Z,1.47
2019-04-28T08:56:33.345Z,1.43
2019-04-28T08:59:05.041Z,1.60
2019-04-28T09:01:55.166Z,2.10
2019-04-28T09:04:44.969Z,2.00
2019-04-28T09:07:34.729Z,2.00
2019-04-28T09:10:24.507Z,2.03
2019-04-28T09:12:54.970Z,1.67
2019-04-28T09:15:39.943Z,1.87
2019-04-28T09:18:17.101Z,2.03
2019-04-28T09:20:47.470Z,1.73
2019-04-28T09:23:17.901Z,1.80
2019-04-28T09:25:48.266Z,1.60
2019-04-28T09:28:18.625Z,1.67
2019-04-28T09:30:48.994Z,1.97
2019-04-28T09:33:38.821Z,1.87
2019-04-28T09:36:09.323Z,1.60
2019-04-28T09:38:59.095Z,1.70
2019-04-28T09:42:07.779Z,1.40
2019-04-28T09:44:57.548Z,1.50
2019-04-28T09:47:27.934Z,1.40
2019-04-28T09:50:17.720Z,1.80
2019-04-28T09:52:48.862Z,1.97
2019-04-28T09:55:25.814Z,1.77
2019-04-28T09:57:56.177Z,1.60
2019-04-28T10:00:45.938Z,1.37
2019-04-28T10:03:16.313Z,1.90
2019-04-28T10:05:47.877Z,1.43
2019-04-28T10:08:18.319Z,1.60
2019-04-28T10:10:48.753Z,1.20
2019-04-28T10:13:19.155Z,1.20
2019-04-28T10:16:08.968Z,1.70
2019-04-28T10:18:40.970Z,1.33
2019-04-28T10:21:30.759Z,1.47
2019-04-28T10:24:20.542Z,1.10
2019-04-28T10:26:50.938Z,1.30
2019-04-28T10:29:21.315Z,1.20
2019-04-28T10:31:51.727Z,1.00
2019-04-28T10:34:54.055Z,1.37
2019-04-28T10:37:33.362Z,1.20
2019-04-28T10:41:01.148Z,1.33
2019-04-28T10:43:31.523Z,1.50
2019-04-28T10:46:21.389Z,1.03
2019-04-28T10:48:51.867Z,1.33
2019-04-28T10:51:22.301Z,1.57
2019-04-28T10:53:52.671Z,1.40
2019-04-28T10:56:23.217Z,1.57
2019-04-28T11:01:40.659Z,1.30
2019-04-28T11:04:29.976Z,1.40
2019-04-28T11:07:00.561Z,1.47
2019-04-28T11:12:32.370Z,1.27
2019-04-28T11:20:53.442Z,1.93
2019-04-28T11:23:23.817Z,1.40
2019-04-28T11:25:54.430Z,1.43
2019-04-28T11:28:24.828Z,1.17
2019-04-28T11:30:55.295Z,1.70
2019-04-28T11:36:18.863Z,1.70
2019-04-28T11:38:49.256Z,1.17
2019-04-28T11:41:19.787Z,0.97
2019-04-28T11:43:50.167Z,1.70
2019-04-28T11:49:04.479Z,1.57
2019-04-28T11:51:34.886Z,1.60
2019-04-28T11:54:05.250Z,1.33
2019-04-28T11:56:41.678Z,1.63
2019-04-28T11:59:19.081Z,1.57
2019-04-28T12:01:49.513Z,1.93
2019-04-28T12:07:03.884Z,1.50
2019-04-28T12:13:02.850Z,1.40
2019-04-28T12:18:51.647Z,1.30
2019-04-28T12:21:22.424Z,1.10
2019-04-28T12:23:52.866Z,1.30
2019-04-28T12:26:23.307Z,1.17
2019-04-28T12:28:53.723Z,1.20
2019-04-28T12:31:24.166Z,1.37
2019-04-28T12:34:13.995Z,1.20
2019-04-28T12:36:44.464Z,1.40
2019-04-28T12:39:14.925Z,1.47
2019-04-28T12:41:45.335Z,1.33
2019-04-28T12:44:15.765Z,1.70
2019-04-28T12:46:46.172Z,1.33
2019-04-28T12:49:35.615Z,1.80
2019-04-28T12:54:49.688Z,1.40
2019-04-28T12:57:20.187Z,1.63
2019-04-28T13:02:50.334Z,1.20
2019-04-28T13:08:31.403Z,1.27
2019-04-28T13:11:01.870Z,1.23
2019-04-28T13:13:32.376Z,1.30
2019-04-28T13:16:02.848Z,1.40
2019-04-28T13:18:33.223Z,1.00
2019-04-28T13:21:03.643Z,1.30
2019-04-28T13:23:34.020Z,1.30
2019-04-28T13:26:04.452Z,1.10
2019-04-28T13:28:34.841Z,1.03
2019-04-28T13:31:05.220Z,1.50
2019-04-28T13:33:35.741Z,1.50
2019-04-28T13:36:14.485Z,1.33
2019-04-28T13:41:41.679Z,1.40
2019-04-28T13:44:50.308Z,1.30
2019-04-28T13:47:40.568Z,1.90
2019-04-28T13:53:19.584Z,1.33
2019-04-28T14:02:13.705Z,1.63
2019-04-28T14:05:22.346Z,1.10
2019-04-28T14:08:12.139Z,1.30
2019-04-28T14:11:01.896Z,1.53
2019-04-28T14:13:32.468Z,1.43
2019-04-28T14:16:02.970Z,1.33
2019-04-28T14:18:52.824Z,1.23
2019-04-28T14:21:23.175Z,1.33
2019-04-28T14:24:12.987Z,1.57
2019-04-28T14:27:02.842Z,1.60
2019-04-28T14:29:33.268Z,1.20
2019-04-28T14:32:03.665Z,1.20
2019-04-28T14:34:34.053Z,1.20
2019-04-28T14:37:04.546Z,1.30
2019-04-28T14:39:34.972Z,1.53
2019-04-28T14:42:05.579Z,1.20
2019-04-28T14:44:35.995Z,2.33
2019-04-28T14:47:25.763Z,1.83
2019-04-28T14:50:15.545Z,1.77
2019-04-28T14:53:08.392Z,1.30
2019-04-28T14:55:48.348Z,1.60
2019-04-28T14:58:18.780Z,1.40
2019-04-28T15:06:40.344Z,2.07
2019-04-28T15:09:32.766Z,1.73
2019-04-28T15:12:08.121Z,1.43
2019-04-28T15:14:38.568Z,1.20
2019-04-28T15:17:08.986Z,1.30
2019-04-28T15:19:39.408Z,1.50
2019-04-28T15:22:09.860Z,1.20
2019-04-28T15:24:40.262Z,1.40
2019-04-28T15:27:10.670Z,1.30
2019-04-28T15:29:41.076Z,1.10
2019-04-28T15:32:11.459Z,1.20
2019-04-28T15:34:41.842Z,1.13
2019-04-28T15:37:31.615Z,1.00
2019-04-28T15:40:01.984Z,1.40
2019-04-28T15:42:32.416Z,1.30
2019-04-28T15:45:02.874Z,1.20
2019-04-28T15:47:33.465Z,1.00
2019-04-28T15:50:04.027Z,1.07
2019-04-28T15:52:34.460Z,1.13
2019-04-28T15:58:34.361Z,1.23
2019-04-28T16:01:04.939Z,2.50
2019-04-28T16:03:35.384Z,1.63
2019-04-28T16:06:05.906Z,1.20
2019-04-28T16:08:36.355Z,1.10
2019-04-28T16:11:28.881Z,1.40
2019-04-28T16:14:03.782Z,2.17
2019-04-28T16:16:34.135Z,1.40
2019-04-28T16:19:04.607Z,1.50
2019-04-28T16:21:35.008Z,1.30
2019-04-28T16:24:05.877Z,1.60
2019-04-28T16:26:36.236Z,1.33
2019-04-28T16:29:06.766Z,1.20
2019-04-28T16:31:37.130Z,1.40
2019-04-28T16:34:07.560Z,1.50
2019-04-28T16:36:38.007Z,1.20
2019-04-28T16:39:08.723Z,1.20
2019-04-28T16:41:40.578Z,1.00
2019-04-28T16:44:14.457Z,1.53
2019-04-28T16:46:44.866Z,1.57
2019-04-28T16:49:15.320Z,1.37
2019-04-28T16:51:45.721Z,1.40
2019-04-28T16:54:16.292Z,1.30
2019-04-28T17:00:31.224Z,1.30
2019-04-28T17:03:01.687Z,1.57
2019-04-28T17:05:32.067Z,1.47
2019-04-28T17:08:02.544Z,1.83
2019-04-28T17:10:32.941Z,1.57
2019-04-28T17:13:03.628Z,1.80
2019-04-28T17:15:34.006Z,1.57
2019-04-28T17:18:04.509Z,1.80
2019-04-28T17:20:34.992Z,1.13
2019-04-28T17:23:05.555Z,1.40
2019-04-28T17:25:35.961Z,1.60
2019-04-28T17:30:53.056Z,1.43
2019-04-28T17:33:23.425Z,1.57
2019-04-28T17:35:53.879Z,1.33
2019-04-28T17:38:24.381Z,1.77
2019-04-28T17:40:54.801Z,2.00
2019-04-28T17:43:25.303Z,1.57
2019-04-28T17:45:55.751Z,1.77
2019-04-28T17:51:13.561Z,1.80
2019-04-28T17:53:44.082Z,2.10
2019-04-28T17:56:14.608Z,2.30
2019-04-28T17:58:45.099Z,1.63
2019-04-28T18:01:34.441Z,1.90
2019-04-28T18:04:23.921Z,1.63
2019-04-28T18:06:59.402Z,1.80
2019-04-28T18:09:29.873Z,1.73
2019-04-28T18:12:19.646Z,2.40
2019-04-28T18:20:41.301Z,1.70
2019-04-28T18:23:11.719Z,1.70
2019-04-28T18:25:42.174Z,1.70
2019-04-28T18:28:12.570Z,1.50
2019-04-28T18:42:23.277Z,1.53
2019-04-28T18:44:53.709Z,1.37
2019-04-28T18:47:24.213Z,1.90
2019-04-28T18:49:54.737Z,1.70
2019-04-28T18:52:25.239Z,1.60
2019-04-28T18:55:15.071Z,1.43
2019-04-28T18:57:45.499Z,1.50
2019-04-28T19:03:12.941Z,1.77
2019-04-28T19:09:12.639Z,1.25
2019-04-28T19:12:01.984Z,1.57
2019-04-28T19:17:39.683Z,1.30
2019-04-28T19:20:13.397Z,1.33
2019-04-28T19:22:53.650Z,1.10
2019-04-28T19:25:24.142Z,0.97
2019-04-28T19:27:54.593Z,1.27
2019-04-28T19:30:25.026Z,1.30
2019-04-28T19:32:55.610Z,1.20
2019-04-28T19:35:26.127Z,1.40
2019-04-28T19:37:56.646Z,1.50
2019-04-28T19:40:27.037Z,1.03
2019-04-28T19:43:16.872Z,1.10
2019-04-28T19:48:45.803Z,1.20
2019-04-28T19:51:31.218Z,1.20
2019-04-28T20:00:01.466Z,1.60
2019-04-28T20:05:16.735Z,1.47
2019-04-28T20:07:47.162Z,1.33
2019-04-28T20:10:17.593Z,1.33
2019-04-28T20:12:48.004Z,1.40
2019-04-28T20:15:18.452Z,0.93
2019-04-28T20:17:48.914Z,1.20
2019-04-28T20:20:38.740Z,1.50
2019-04-28T20:23:09.159Z,1.20
2019-04-28T20:25:39.646Z,1.30
2019-04-28T20:28:10.073Z,1.30
2019-04-28T20:31:00.129Z,1.10
2019-04-28T20:33:30.532Z,1.10
2019-04-28T20:41:32.494Z,1.27
2019-04-28T20:44:02.993Z,1.30
2019-04-28T20:46:33.384Z,1.60
2019-04-28T20:49:03.862Z,1.17
2019-04-28T20:51:34.271Z,1.67
2019-04-28T20:54:04.702Z,1.50
2019-04-28T20:56:36.822Z,1.30
2019-04-28T20:59:07.318Z,1.40
2019-04-28T21:01:37.820Z,1.50
2019-04-28T21:04:08.253Z,1.30
2019-04-28T21:06:38.654Z,1.30
2019-04-28T21:09:09.735Z,1.20
2019-04-28T21:12:00.647Z,1.60
2019-04-28T21:14:30.990Z,1.00
2019-04-28T21:17:01.474Z,1.30
2019-04-28T21:19:31.835Z,1.37
2019-04-28T21:22:02.360Z,1.23
2019-04-28T21:24:32.812Z,1.20
2019-04-28T21:27:03.351Z,1.47
2019-04-28T21:29:33.748Z,1.50
2019-04-28T21:32:04.192Z,1.40
2019-04-28T21:34:34.677Z,1.10
2019-04-28T21:37:05.253Z,1.33
2019-04-28T21:39:35.785Z,1.10
2019-04-28T21:45:09.388Z,1.60
2019-04-28T21:47:39.973Z,1.17
2019-04-28T21:50:10.397Z,1.60
2019-04-28T21:52:40.782Z,1.60
2019-04-28T21:55:11.302Z,1.43
2019-04-28T21:57:41.780Z,1.57
2019-04-28T22:03:14.976Z,2.13
2019-04-28T22:05:45.500Z,1.97
2019-04-28T22:08:16.106Z,1.90
2019-04-28T22:10:46.566Z,2.17
2019-04-28T22:13:17.048Z,2.43
2019-04-28T22:15:47.396Z,2.33
2019-04-28T22:18:17.822Z,2.97
2019-04-28T22:20:48.210Z,2.63
2019-04-28T22:26:50.908Z,2.20
2019-04-28T22:29:21.345Z,1.97
2019-04-28T22:32:11.168Z,2.63
2019-04-28T22:35:01.039Z,2.23
2019-04-28T22:37:50.874Z,2.90
2019-04-28T22:40:40.808Z,2.47
2019-04-28T22:43:30.621Z,2.20
2019-04-28T22:46:01.072Z,2.87
2019-04-28T22:51:47.861Z,2.43
2019-04-28T22:54:56.457Z,3.20
2019-04-28T22:57:45.737Z,2.57
2019-04-28T23:03:38.944Z,3.40
2019-04-28T23:06:28.811Z,4.20
2019-04-28T23:08:59.266Z,3.50
2019-04-28T23:11:29.623Z,3.37
2019-04-28T23:14:19.416Z,3.70
2019-04-28T23:20:45.885Z,3.33
2019-04-28T23:23:16.402Z,3.37
2019-04-28T23:26:06.282Z,3.30
2019-04-28T23:28:38.366Z,3.10
2019-04-28T23:31:08.763Z,3.20
2019-04-28T23:33:39.110Z,3.70
2019-04-28T23:36:09.494Z,2.83
2019-04-28T23:38:42.383Z,2.80
2019-04-28T23:41:41.935Z,2.87
2019-04-28T23:44:12.302Z,3.30
2019-04-28T23:47:02.219Z,2.53
2019-04-28T23:49:52.033Z,2.70
2019-04-28T23:52:41.287Z,2.43
2019-04-28T23:55:13.389Z,3.00
2019-04-28T23:57:43.776Z,3.03
